sensor_id;sensor_type;location;lat;lon;timestamp;temperature;humidity
21031;DHT22;61072;47.808;7.636;2022-11-15T05:11:46;11.60;99.90
21031;DHT22;61072;47.808;7.636;2022-11-15T05:14:14;11.60;99.90
21031;DHT22;61072;47.808;7.636;2022-11-15T05:16:41;11.60;99.90
21031;DHT22;61072;47.808;7.636;2022-11-15T05:19:08;11.60;99.90
21031;DHT22;61072;47.808;7.636;2022-11-15T05:21:35;11.60;99.90
21031;DHT22;61072;47.808;7.636;2022-11-15T05:24:02;11.60;99.90
21031;DHT22;61072;47.808;7.636;2022-11-15T05:26:29;11.60;99.90
21031;DHT22;61072;47.808;7.636;2022-11-15T05:28:58;11.60;99.90
21031;DHT22;61072;47.808;7.636;2022-11-15T05:31:26;11.60;99.90
21031;DHT22;61072;47.808;7.636;2022-11-15T05:33:54;11.50;99.90
21031;DHT22;61072;47.808;7.636;2022-11-15T05:36:41;11.50;99.90
21031;DHT22;61072;47.808;7.636;2022-11-15T05:39:08;11.50;99.90
21031;DHT22;61072;47.808;7.636;2022-11-15T05:41:43;11.50;99.90
21031;DHT22;61072;47.808;7.636;2022-11-15T05:44:13;11.50;99.90
21031;DHT22;61072;47.808;7.636;2022-11-15T05:46:40;11.50;99.90
21031;DHT22;61072;47.808;7.636;2022-11-15T05:49:13;11.50;99.90
21031;DHT22;61072;47.808;7.636;2022-11-15T05:51:41;11.50;99.90
21031;DHT22;61072;47.808;7.636;2022-11-15T05:54:10;11.50;99.90
21031;DHT22;61072;47.808;7.636;2022-11-15T05:56:37;11.50;99.90
21031;DHT22;61072;47.808;7.636;2022-11-15T05:59:04;11.40;99.90
21031;DHT22;61072;47.808;7.636;2022-11-15T06:01:31;11.40;99.90
21031;DHT22;61072;47.808;7.636;2022-11-15T06:03:58;11.40;99.90
21031;DHT22;61072;47.808;7.636;2022-11-15T06:06:26;11.40;99.90
21031;DHT22;61072;47.808;7.636;2022-11-15T06:08:53;11.40;99.90
21031;DHT22;61072;47.808;7.636;2022-11-15T06:11:20;11.40;99.90
21031;DHT22;61072;47.808;7.636;2022-11-15T06:13:46;11.30;99.90
21031;DHT22;61072;47.808;7.636;2022-11-15T06:16:13;11.30;99.90
21031;DHT22;61072;47.808;7.636;2022-11-15T06:18:40;11.30;99.90
21031;DHT22;61072;47.808;7.636;2022-11-15T06:21:07;11.30;99.90
21031;DHT22;61072;47.808;7.636;2022-11-15T06:23:34;11.30;99.90
21031;DHT22;61072;47.808;7.636;2022-11-15T06:26:02;11.30;99.90
21031;DHT22;61072;47.808;7.636;2022-11-15T06:28:33;11.40;99.90
21031;DHT22;61072;47.808;7.636;2022-11-15T06:31:08;11.30;99.90
21031;DHT22;61072;47.808;7.636;2022-11-15T06:33:35;11.30;99.90
21031;DHT22;61072;47.808;7.636;2022-11-15T06:36:03;11.30;99.90
21031;DHT22;61072;47.808;7.636;2022-11-15T06:38:30;11.30;99.90
21031;DHT22;61072;47.808;7.636;2022-11-15T06:41:05;11.30;99.90
21031;DHT22;61072;47.808;7.636;2022-11-15T06:43:33;11.30;99.90
21031;DHT22;61072;47.808;7.636;2022-11-15T06:46:01;11.30;99.90
21031;DHT22;61072;47.808;7.636;2022-11-15T06:48:30;11.30;99.90
21031;DHT22;61072;47.808;7.636;2022-11-15T06:50:58;11.30;99.90
21031;DHT22;61072;47.808;7.636;2022-11-15T06:53:26;11.30;99.90
21031;DHT22;61072;47.808;7.636;2022-11-15T06:55:53;11.30;99.90
21031;DHT22;61072;47.808;7.636;2022-11-15T06:58:24;11.30;99.90
21031;DHT22;61072;47.808;7.636;2022-11-15T07:00:51;11.30;99.90
21031;DHT22;61072;47.808;7.636;2022-11-15T07:03:17;11.30;99.90
21031;DHT22;61072;47.808;7.636;2022-11-15T07:05:52;11.30;99.90
21031;DHT22;61072;47.808;7.636;2022-11-15T07:08:20;11.30;99.90
21031;DHT22;61072;47.808;7.636;2022-11-15T07:10:46;11.30;99.90
21031;DHT22;61072;47.808;7.636;2022-11-15T07:13:13;11.30;99.90
21031;DHT22;61072;47.808;7.636;2022-11-15T07:15:40;11.40;99.90
21031;DHT22;61072;47.808;7.636;2022-11-15T07:18:06;11.40;99.90
21031;DHT22;61072;47.808;7.636;2022-11-15T07:20:33;11.40;99.90
21031;DHT22;61072;47.808;7.636;2022-11-15T07:23:04;11.40;99.90
21031;DHT22;61072;47.808;7.636;2022-11-15T07:25:32;11.40;99.90
21031;DHT22;61072;47.808;7.636;2022-11-15T07:27:59;11.50;99.90
21031;DHT22;61072;47.808;7.636;2022-11-15T07:30:27;11.50;99.90
21031;DHT22;61072;47.808;7.636;2022-11-15T07:32:58;11.50;99.90
21031;DHT22;61072;47.808;7.636;2022-11-15T07:35:26;11.50;99.90
21031;DHT22;61072;47.808;7.636;2022-11-15T07:37:59;11.50;99.90
21031;DHT22;61072;47.808;7.636;2022-11-15T07:40:30;11.50;99.90
21031;DHT22;61072;47.808;7.636;2022-11-15T07:43:02;11.50;99.90
21031;DHT22;61072;47.808;7.636;2022-11-15T07:45:29;11.50;99.90
21031;DHT22;61072;47.808;7.636;2022-11-15T07:47:56;11.60;99.90
21031;DHT22;61072;47.808;7.636;2022-11-15T07:50:24;11.60;99.90
21031;DHT22;61072;47.808;7.636;2022-11-15T07:52:55;11.60;99.90
21031;DHT22;61072;47.808;7.636;2022-11-15T07:55:23;11.60;99.90
21031;DHT22;61072;47.808;7.636;2022-11-15T07:57:50;11.70;99.90
21031;DHT22;61072;47.808;7.636;2022-11-15T08:00:17;11.70;99.90
21031;DHT22;61072;47.808;7.636;2022-11-15T08:02:44;11.80;99.90
21031;DHT22;61072;47.808;7.636;2022-11-15T08:05:12;11.80;99.90
21031;DHT22;61072;47.808;7.636;2022-11-15T08:07:38;11.80;99.90
21031;DHT22;61072;47.808;7.636;2022-11-15T08:10:07;11.80;99.90
21031;DHT22;61072;47.808;7.636;2022-11-15T08:12:34;11.90;99.90
21031;DHT22;61072;47.808;7.636;2022-11-15T08:15:01;11.90;99.90
21031;DHT22;61072;47.808;7.636;2022-11-15T08:17:27;11.90;99.90
21031;DHT22;61072;47.808;7.636;2022-11-15T08:19:58;12.00;99.90
21031;DHT22;61072;47.808;7.636;2022-11-15T08:22:25;12.00;99.90
21031;DHT22;61072;47.808;7.636;2022-11-15T08:24:51;12.00;99.90
21031;DHT22;61072;47.808;7.636;2022-11-15T08:27:18;12.00;99.90
21031;DHT22;61072;47.808;7.636;2022-11-15T08:29:45;12.00;99.90
21031;DHT22;61072;47.808;7.636;2022-11-15T08:32:12;12.10;99.90
21031;DHT22;61072;47.808;7.636;2022-11-15T08:34:39;12.10;99.90
21031;DHT22;61072;47.808;7.636;2022-11-15T08:37:06;12.10;99.90
21031;DHT22;61072;47.808;7.636;2022-11-15T08:39:32;12.10;99.90
21031;DHT22;61072;47.808;7.636;2022-11-15T08:41:59;12.00;99.90
21031;DHT22;61072;47.808;7.636;2022-11-15T08:44:26;12.00;99.90
21031;DHT22;61072;47.808;7.636;2022-11-15T08:46:53;12.00;99.90
21031;DHT22;61072;47.808;7.636;2022-11-15T08:49:19;12.00;99.90
21031;DHT22;61072;47.808;7.636;2022-11-15T08:51:46;12.00;99.90
21031;DHT22;61072;47.808;7.636;2022-11-15T08:54:13;12.00;99.90
21031;DHT22;61072;47.808;7.636;2022-11-15T08:56:39;12.00;99.90
21031;DHT22;61072;47.808;7.636;2022-11-15T08:59:06;12.00;99.90
21031;DHT22;61072;47.808;7.636;2022-11-15T09:01:33;12.10;99.90
21031;DHT22;61072;47.808;7.636;2022-11-15T09:04:00;12.10;99.90
21031;DHT22;61072;47.808;7.636;2022-11-15T09:06:26;12.10;99.90
21031;DHT22;61072;47.808;7.636;2022-11-15T09:08:53;12.10;99.90
21031;DHT22;61072;47.808;7.636;2022-11-15T09:11:20;12.20;99.90
21031;DHT22;61072;47.808;7.636;2022-11-15T09:13:49;12.20;99.90
21031;DHT22;61072;47.808;7.636;2022-11-15T09:16:16;12.30;99.90
21031;DHT22;61072;47.808;7.636;2022-11-15T09:18:42;12.30;99.90
21031;DHT22;61072;47.808;7.636;2022-11-15T09:21:09;12.30;99.90
21031;DHT22;61072;47.808;7.636;2022-11-15T09:23:37;12.40;99.90
21031;DHT22;61072;47.808;7.636;2022-11-15T09:26:04;12.50;99.90
21031;DHT22;61072;47.808;7.636;2022-11-15T09:28:32;12.50;99.90
21031;DHT22;61072;47.808;7.636;2022-11-15T09:31:01;12.50;99.90
21031;DHT22;61072;47.808;7.636;2022-11-15T09:33:29;12.60;99.90
21031;DHT22;61072;47.808;7.636;2022-11-15T09:36:02;12.60;99.90
21031;DHT22;61072;47.808;7.636;2022-11-15T09:38:29;12.70;99.90
21031;DHT22;61072;47.808;7.636;2022-11-15T09:43:46;12.80;99.90
21031;DHT22;61072;47.808;7.636;2022-11-15T09:46:30;12.80;99.90
21031;DHT22;61072;47.808;7.636;2022-11-15T09:49:00;12.80;99.90
21031;DHT22;61072;47.808;7.636;2022-11-15T09:54:27;12.90;99.90
21031;DHT22;61072;47.808;7.636;2022-11-15T09:57:32;13.00;99.90
21031;DHT22;61072;47.808;7.636;2022-11-15T10:03:22;13.10;99.90
21031;DHT22;61072;47.808;7.636;2022-11-15T10:05:51;13.10;99.90
21031;DHT22;61072;47.808;7.636;2022-11-15T10:08:44;13.20;99.90
21031;DHT22;61072;47.808;7.636;2022-11-15T10:11:25;13.20;99.90
21031;DHT22;61072;47.808;7.636;2022-11-15T10:14:18;13.30;99.90
21031;DHT22;61072;47.808;7.636;2022-11-15T10:20:15;13.40;99.90
21031;DHT22;61072;47.808;7.636;2022-11-15T10:22:45;13.40;99.90
21031;DHT22;61072;47.808;7.636;2022-11-15T10:30:55;13.40;99.90
21031;DHT22;61072;47.808;7.636;2022-11-15T10:33:34;13.40;99.90
21031;DHT22;61072;47.808;7.636;2022-11-15T10:36:18;13.40;99.90
21031;DHT22;61072;47.808;7.636;2022-11-15T10:41:37;13.30;99.90
21031;DHT22;61072;47.808;7.636;2022-11-15T10:44:18;13.40;99.90
21031;DHT22;61072;47.808;7.636;2022-11-15T10:49:28;13.40;99.90
21031;DHT22;61072;47.808;7.636;2022-11-15T10:54:36;13.40;99.90
21031;DHT22;61072;47.808;7.636;2022-11-15T10:57:07;13.50;99.90
21031;DHT22;61072;47.808;7.636;2022-11-15T10:59:37;13.50;99.90
21031;DHT22;61072;47.808;7.636;2022-11-15T11:02:34;13.60;99.90
21031;DHT22;61072;47.808;7.636;2022-11-15T11:05:06;13.60;99.90
21031;DHT22;61072;47.808;7.636;2022-11-15T11:07:56;13.60;99.90
21031;DHT22;61072;47.808;7.636;2022-11-15T11:10:24;13.60;99.90
21031;DHT22;61072;47.808;7.636;2022-11-15T11:13:21;13.50;99.90
21031;DHT22;61072;47.808;7.636;2022-11-15T11:21:40;13.50;99.90
21031;DHT22;61072;47.808;7.636;2022-11-15T11:32:50;13.30;99.90
21031;DHT22;61072;47.808;7.636;2022-11-15T11:38:23;13.30;99.90
21031;DHT22;61072;47.808;7.636;2022-11-15T11:41:37;13.30;99.90
21031;DHT22;61072;47.808;7.636;2022-11-15T11:46:50;13.20;99.90
21031;DHT22;61072;47.808;7.636;2022-11-15T11:52:08;13.20;99.90
21031;DHT22;61072;47.808;7.636;2022-11-15T11:55:05;13.10;99.90
21031;DHT22;61072;47.808;7.636;2022-11-15T11:58:15;13.20;99.90
21031;DHT22;61072;47.808;7.636;2022-11-15T12:00:51;13.20;99.90
21031;DHT22;61072;47.808;7.636;2022-11-15T12:05:59;13.20;99.90
21031;DHT22;61072;47.808;7.636;2022-11-15T12:11:20;13.20;99.90
21031;DHT22;61072;47.808;7.636;2022-11-15T12:13:53;13.30;99.90
21031;DHT22;61072;47.808;7.636;2022-11-15T12:16:32;13.20;99.90
21031;DHT22;61072;47.808;7.636;2022-11-15T12:19:01;13.20;99.90
21031;DHT22;61072;47.808;7.636;2022-11-15T12:21:42;13.30;99.90
21031;DHT22;61072;47.808;7.636;2022-11-15T12:27:31;13.30;99.90
21031;DHT22;61072;47.808;7.636;2022-11-15T12:30:03;13.30;99.90
21031;DHT22;61072;47.808;7.636;2022-11-15T12:32:36;13.40;99.90
21031;DHT22;61072;47.808;7.636;2022-11-15T12:35:06;13.40;99.90
21031;DHT22;61072;47.808;7.636;2022-11-15T12:37:51;13.40;99.90
21031;DHT22;61072;47.808;7.636;2022-11-15T12:40:23;13.40;99.90
21031;DHT22;61072;47.808;7.636;2022-11-15T12:43:01;13.40;99.90
21031;DHT22;61072;47.808;7.636;2022-11-15T12:45:32;13.30;99.90
21031;DHT22;61072;47.808;7.636;2022-11-15T12:50:55;13.30;99.90
21031;DHT22;61072;47.808;7.636;2022-11-15T12:58:56;13.30;99.90
21031;DHT22;61072;47.808;7.636;2022-11-15T13:06:58;13.40;99.90
21031;DHT22;61072;47.808;7.636;2022-11-15T13:12:01;13.40;99.90
21031;DHT22;61072;47.808;7.636;2022-11-15T13:19:49;13.40;99.90
21031;DHT22;61072;47.808;7.636;2022-11-15T13:22:18;13.50;99.90
21031;DHT22;61072;47.808;7.636;2022-11-15T13:25:04;13.40;99.90
21031;DHT22;61072;47.808;7.636;2022-11-15T13:27:41;13.40;99.90
21031;DHT22;61072;47.808;7.636;2022-11-15T13:30:22;13.40;99.90
21031;DHT22;61072;47.808;7.636;2022-11-15T13:32:50;13.40;99.90
21031;DHT22;61072;47.808;7.636;2022-11-15T13:35:28;13.50;99.90
21031;DHT22;61072;47.808;7.636;2022-11-15T13:37:55;13.50;99.90
21031;DHT22;61072;47.808;7.636;2022-11-15T13:40:29;13.50;99.90
21031;DHT22;61072;47.808;7.636;2022-11-15T13:42:57;13.50;99.90
21031;DHT22;61072;47.808;7.636;2022-11-15T13:45:25;13.60;99.90
21031;DHT22;61072;47.808;7.636;2022-11-15T13:47:57;13.60;99.90
21031;DHT22;61072;47.808;7.636;2022-11-15T13:50:31;13.70;99.90
21031;DHT22;61072;47.808;7.636;2022-11-15T13:53:00;13.80;99.90
21031;DHT22;61072;47.808;7.636;2022-11-15T13:55:28;13.80;99.90
21031;DHT22;61072;47.808;7.636;2022-11-15T13:58:01;13.80;99.90
21031;DHT22;61072;47.808;7.636;2022-11-15T14:03:19;13.80;99.90
21031;DHT22;61072;47.808;7.636;2022-11-15T14:08:34;13.90;99.90
21031;DHT22;61072;47.808;7.636;2022-11-15T14:11:19;13.90;99.90
21031;DHT22;61072;47.808;7.636;2022-11-15T14:14:19;13.80;99.90
21031;DHT22;61072;47.808;7.636;2022-11-15T14:16:52;13.80;99.90
21031;DHT22;61072;47.808;7.636;2022-11-15T14:24:36;13.70;99.90
21031;DHT22;61072;47.808;7.636;2022-11-15T14:27:26;13.70;99.90
21031;DHT22;61072;47.808;7.636;2022-11-15T14:29:53;13.70;99.90
21031;DHT22;61072;47.808;7.636;2022-11-15T14:32:25;13.70;99.90
21031;DHT22;61072;47.808;7.636;2022-11-15T14:35:00;13.70;99.90
21031;DHT22;61072;47.808;7.636;2022-11-15T14:37:30;13.60;99.90
21031;DHT22;61072;47.808;7.636;2022-11-15T14:40:05;13.60;99.90
21031;DHT22;61072;47.808;7.636;2022-11-15T14:42:32;13.50;99.90
21031;DHT22;61072;47.808;7.636;2022-11-15T14:44:59;13.50;99.90
21031;DHT22;61072;47.808;7.636;2022-11-15T14:47:25;13.50;99.90
21031;DHT22;61072;47.808;7.636;2022-11-15T14:49:52;13.40;99.90
21031;DHT22;61072;47.808;7.636;2022-11-15T14:52:28;13.30;99.90
21031;DHT22;61072;47.808;7.636;2022-11-15T14:54:59;13.30;99.90
21031;DHT22;61072;47.808;7.636;2022-11-15T14:57:26;13.30;99.90
21031;DHT22;61072;47.808;7.636;2022-11-15T14:59:52;13.20;99.90
21031;DHT22;61072;47.808;7.636;2022-11-15T15:02:24;13.20;99.90
21031;DHT22;61072;47.808;7.636;2022-11-15T15:04:51;13.20;99.90
21031;DHT22;61072;47.808;7.636;2022-11-15T15:07:18;13.20;99.90
21031;DHT22;61072;47.808;7.636;2022-11-15T15:09:46;13.20;99.90
21031;DHT22;61072;47.808;7.636;2022-11-15T15:12:21;13.20;99.90
21031;DHT22;61072;47.808;7.636;2022-11-15T15:14:50;13.20;99.90
21031;DHT22;61072;47.808;7.636;2022-11-15T15:17:17;13.10;99.90
21031;DHT22;61072;47.808;7.636;2022-11-15T15:19:44;13.10;99.90
21031;DHT22;61072;47.808;7.636;2022-11-15T15:22:16;13.10;99.90
21031;DHT22;61072;47.808;7.636;2022-11-15T15:24:44;13.10;99.90
21031;DHT22;61072;47.808;7.636;2022-11-15T15:27:11;13.10;99.90
21031;DHT22;61072;47.808;7.636;2022-11-15T15:29:39;13.00;99.90
21031;DHT22;61072;47.808;7.636;2022-11-15T15:32:06;13.00;99.90
21031;DHT22;61072;47.808;7.636;2022-11-15T15:34:33;12.90;99.90
21031;DHT22;61072;47.808;7.636;2022-11-15T15:37:23;12.90;99.90
21031;DHT22;61072;47.808;7.636;2022-11-15T15:39:51;12.90;99.90
21031;DHT22;61072;47.808;7.636;2022-11-15T15:42:18;12.90;99.90
21031;DHT22;61072;47.808;7.636;2022-11-15T15:44:47;12.80;99.90
21031;DHT22;61072;47.808;7.636;2022-11-15T15:47:21;12.80;99.90
21031;DHT22;61072;47.808;7.636;2022-11-15T15:49:49;12.80;99.90
21031;DHT22;61072;47.808;7.636;2022-11-15T15:52:16;12.80;99.90
21031;DHT22;61072;47.808;7.636;2022-11-15T15:54:43;12.80;99.90
21031;DHT22;61072;47.808;7.636;2022-11-15T15:57:12;12.70;99.90
21031;DHT22;61072;47.808;7.636;2022-11-15T15:59:39;12.70;99.90
21031;DHT22;61072;47.808;7.636;2022-11-15T16:02:08;12.70;99.90
21031;DHT22;61072;47.808;7.636;2022-11-15T16:04:35;12.70;99.90
21031;DHT22;61072;47.808;7.636;2022-11-15T16:07:02;12.70;99.90
21031;DHT22;61072;47.808;7.636;2022-11-15T16:09:30;12.70;99.90
21031;DHT22;61072;47.808;7.636;2022-11-15T16:12:15;12.60;99.90
21031;DHT22;61072;47.808;7.636;2022-11-15T16:14:43;12.60;99.90
21031;DHT22;61072;47.808;7.636;2022-11-15T16:17:33;12.60;99.90
21031;DHT22;61072;47.808;7.636;2022-11-15T16:20:01;12.60;99.90
21031;DHT22;61072;47.808;7.636;2022-11-15T16:22:29;12.60;99.90
21031;DHT22;61072;47.808;7.636;2022-11-15T16:24:56;12.60;99.90
21031;DHT22;61072;47.808;7.636;2022-11-15T16:27:23;12.60;99.90
21031;DHT22;61072;47.808;7.636;2022-11-15T16:29:50;12.60;99.90
21031;DHT22;61072;47.808;7.636;2022-11-15T16:32:16;12.60;99.90
21031;DHT22;61072;47.808;7.636;2022-11-15T16:34:43;12.50;99.90
21031;DHT22;61072;47.808;7.636;2022-11-15T16:37:22;12.50;99.90
21031;DHT22;61072;47.808;7.636;2022-11-15T16:39:50;12.50;99.90
21031;DHT22;61072;47.808;7.636;2022-11-15T16:42:16;12.50;99.90
21031;DHT22;61072;47.808;7.636;2022-11-15T16:44:43;12.50;99.90
21031;DHT22;61072;47.808;7.636;2022-11-15T16:47:19;12.50;99.90
21031;DHT22;61072;47.808;7.636;2022-11-15T16:49:46;12.50;99.90
21031;DHT22;61072;47.808;7.636;2022-11-15T16:52:13;12.40;99.90
21031;DHT22;61072;47.808;7.636;2022-11-15T16:54:46;12.40;99.90
21031;DHT22;61072;47.808;7.636;2022-11-15T16:57:13;12.40;99.90
21031;DHT22;61072;47.808;7.636;2022-11-15T16:59:40;12.40;99.90
21031;DHT22;61072;47.808;7.636;2022-11-15T17:02:12;12.40;99.90
21031;DHT22;61072;47.808;7.636;2022-11-15T17:04:39;12.40;99.90
21031;DHT22;61072;47.808;7.636;2022-11-15T17:07:07;12.40;99.90
21031;DHT22;61072;47.808;7.636;2022-11-15T17:09:34;12.40;99.90
21031;DHT22;61072;47.808;7.636;2022-11-15T17:12:00;12.40;99.90
21031;DHT22;61072;47.808;7.636;2022-11-15T17:14:27;12.40;99.90
21031;DHT22;61072;47.808;7.636;2022-11-15T17:16:54;12.40;99.90
21031;DHT22;61072;47.808;7.636;2022-11-15T17:19:21;12.40;99.90
21031;DHT22;61072;47.808;7.636;2022-11-15T17:21:48;12.40;99.90
21031;DHT22;61072;47.808;7.636;2022-11-15T17:24:15;12.40;99.90
21031;DHT22;61072;47.808;7.636;2022-11-15T17:26:42;12.40;99.90
21031;DHT22;61072;47.808;7.636;2022-11-15T17:29:09;12.30;99.90
21031;DHT22;61072;47.808;7.636;2022-11-15T17:31:36;12.40;99.90
21031;DHT22;61072;47.808;7.636;2022-11-15T17:34:05;12.30;99.90
21031;DHT22;61072;47.808;7.636;2022-11-15T17:36:32;12.40;99.90
21031;DHT22;61072;47.808;7.636;2022-11-15T17:38:59;12.40;99.90
21031;DHT22;61072;47.808;7.636;2022-11-15T17:41:27;12.40;99.90
21031;DHT22;61072;47.808;7.636;2022-11-15T17:43:58;12.40;99.90
21031;DHT22;61072;47.808;7.636;2022-11-15T17:46:26;12.30;99.90
21031;DHT22;61072;47.808;7.636;2022-11-15T17:48:54;12.40;99.90
21031;DHT22;61072;47.808;7.636;2022-11-15T17:51:21;12.40;99.90
21031;DHT22;61072;47.808;7.636;2022-11-15T17:53:49;12.30;99.90
21031;DHT22;61072;47.808;7.636;2022-11-15T17:56:22;12.40;99.90
21031;DHT22;61072;47.808;7.636;2022-11-15T17:58:54;12.40;99.90
21031;DHT22;61072;47.808;7.636;2022-11-15T18:01:25;12.30;99.90
21031;DHT22;61072;47.808;7.636;2022-11-15T18:03:53;12.30;99.90
21031;DHT22;61072;47.808;7.636;2022-11-15T18:06:21;12.30;99.90
21031;DHT22;61072;47.808;7.636;2022-11-15T18:08:50;12.30;99.90
21031;DHT22;61072;47.808;7.636;2022-11-15T18:11:31;12.30;99.90
21031;DHT22;61072;47.808;7.636;2022-11-15T18:14:00;12.30;99.90
21031;DHT22;61072;47.808;7.636;2022-11-15T18:16:29;12.30;99.90
21031;DHT22;61072;47.808;7.636;2022-11-15T18:18:57;12.30;99.90
21031;DHT22;61072;47.808;7.636;2022-11-15T18:21:27;12.20;99.90
21031;DHT22;61072;47.808;7.636;2022-11-15T18:23:59;12.20;99.90
21031;DHT22;61072;47.808;7.636;2022-11-15T18:26:27;12.20;99.90
21031;DHT22;61072;47.808;7.636;2022-11-15T18:28:56;12.20;99.90
21031;DHT22;61072;47.808;7.636;2022-11-15T18:31:25;12.20;99.90
21031;DHT22;61072;47.808;7.636;2022-11-15T18:33:53;12.10;99.90
21031;DHT22;61072;47.808;7.636;2022-11-15T18:36:23;12.10;99.90
21031;DHT22;61072;47.808;7.636;2022-11-15T18:38:58;12.10;99.90
21031;DHT22;61072;47.808;7.636;2022-11-15T18:41:25;12.10;99.90
21031;DHT22;61072;47.808;7.636;2022-11-15T18:43:55;12.10;99.90
21031;DHT22;61072;47.808;7.636;2022-11-15T18:46:23;12.10;99.90
21031;DHT22;61072;47.808;7.636;2022-11-15T18:48:51;12.10;99.90
21031;DHT22;61072;47.808;7.636;2022-11-15T18:51:20;12.10;99.90
21031;DHT22;61072;47.808;7.636;2022-11-15T18:53:48;12.10;99.90
21031;DHT22;61072;47.808;7.636;2022-11-15T18:56:16;12.10;99.90
21031;DHT22;61072;47.808;7.636;2022-11-15T18:58:47;12.10;99.90
21031;DHT22;61072;47.808;7.636;2022-11-15T19:01:31;12.10;99.90
21031;DHT22;61072;47.808;7.636;2022-11-15T19:04:04;12.10;99.90
21031;DHT22;61072;47.808;7.636;2022-11-15T19:06:32;12.10;99.90
21031;DHT22;61072;47.808;7.636;2022-11-15T19:09:01;12.10;99.90
21031;DHT22;61072;47.808;7.636;2022-11-15T19:11:33;12.10;99.90
21031;DHT22;61072;47.808;7.636;2022-11-15T19:14:04;12.10;99.90
21031;DHT22;61072;47.808;7.636;2022-11-15T19:16:33;12.10;99.90
21031;DHT22;61072;47.808;7.636;2022-11-15T19:19:02;12.10;99.90
21031;DHT22;61072;47.808;7.636;2022-11-15T19:21:30;12.10;99.90
21031;DHT22;61072;47.808;7.636;2022-11-15T19:23:57;12.10;99.90
21031;DHT22;61072;47.808;7.636;2022-11-15T19:26:24;12.10;99.90
21031;DHT22;61072;47.808;7.636;2022-11-15T19:28:57;12.10;99.90
21031;DHT22;61072;47.808;7.636;2022-11-15T19:31:26;12.10;99.90
21031;DHT22;61072;47.808;7.636;2022-11-15T19:33:54;12.20;99.90
21031;DHT22;61072;47.808;7.636;2022-11-15T19:36:27;12.10;99.90
21031;DHT22;61072;47.808;7.636;2022-11-15T19:38:54;12.10;99.90
21031;DHT22;61072;47.808;7.636;2022-11-15T19:41:22;12.10;99.90
21031;DHT22;61072;47.808;7.636;2022-11-15T19:43:50;12.10;99.90
21031;DHT22;61072;47.808;7.636;2022-11-15T19:46:21;12.10;99.90
21031;DHT22;61072;47.808;7.636;2022-11-15T19:48:50;12.10;99.90
21031;DHT22;61072;47.808;7.636;2022-11-15T19:51:21;12.10;99.90
21031;DHT22;61072;47.808;7.636;2022-11-15T19:53:53;12.10;99.90
21031;DHT22;61072;47.808;7.636;2022-11-15T19:56:21;12.10;99.90
21031;DHT22;61072;47.808;7.636;2022-11-15T19:58:53;12.10;99.90
21031;DHT22;61072;47.808;7.636;2022-11-15T20:01:22;12.10;99.90
21031;DHT22;61072;47.808;7.636;2022-11-15T20:03:51;12.10;99.90
21031;DHT22;61072;47.808;7.636;2022-11-15T20:06:41;12.10;99.90
21031;DHT22;61072;47.808;7.636;2022-11-15T20:09:10;12.10;99.90
21031;DHT22;61072;47.808;7.636;2022-11-15T20:11:37;12.10;99.90
21031;DHT22;61072;47.808;7.636;2022-11-15T20:14:05;12.10;99.90
21031;DHT22;61072;47.808;7.636;2022-11-15T20:16:37;12.10;99.90
21031;DHT22;61072;47.808;7.636;2022-11-15T20:19:04;12.10;99.90
21031;DHT22;61072;47.808;7.636;2022-11-15T20:21:30;12.10;99.90
21031;DHT22;61072;47.808;7.636;2022-11-15T20:23:57;12.10;99.90
21031;DHT22;61072;47.808;7.636;2022-11-15T20:26:24;12.10;99.90
21031;DHT22;61072;47.808;7.636;2022-11-15T20:28:51;12.10;99.90
21031;DHT22;61072;47.808;7.636;2022-11-15T20:31:17;12.10;99.90
21031;DHT22;61072;47.808;7.636;2022-11-15T20:33:44;12.10;99.90
21031;DHT22;61072;47.808;7.636;2022-11-15T20:36:13;12.10;99.90
21031;DHT22;61072;47.808;7.636;2022-11-15T20:38:40;12.10;99.90
21031;DHT22;61072;47.808;7.636;2022-11-15T20:41:09;12.10;99.90
21031;DHT22;61072;47.808;7.636;2022-11-15T20:43:36;12.10;99.90
21031;DHT22;61072;47.808;7.636;2022-11-15T20:46:02;12.10;99.90
21031;DHT22;61072;47.808;7.636;2022-11-15T20:48:29;12.10;99.90
21031;DHT22;61072;47.808;7.636;2022-11-15T20:51:11;12.10;99.90
21031;DHT22;61072;47.808;7.636;2022-11-15T20:53:38;12.10;99.90
21031;DHT22;61072;47.808;7.636;2022-11-15T20:56:09;12.10;99.90
21031;DHT22;61072;47.808;7.636;2022-11-15T20:58:36;12.10;99.90
21031;DHT22;61072;47.808;7.636;2022-11-15T21:01:04;12.00;99.90
21031;DHT22;61072;47.808;7.636;2022-11-15T21:03:31;12.00;99.90
21031;DHT22;61072;47.808;7.636;2022-11-15T21:05:58;12.00;99.90
21031;DHT22;61072;47.808;7.636;2022-11-15T21:08:25;12.00;99.90
21031;DHT22;61072;47.808;7.636;2022-11-15T21:10:53;11.90;99.90
21031;DHT22;61072;47.808;7.636;2022-11-15T21:13:38;11.90;99.90
21031;DHT22;61072;47.808;7.636;2022-11-15T21:16:05;12.00;99.90
21031;DHT22;61072;47.808;7.636;2022-11-15T21:18:32;12.00;99.90
21031;DHT22;61072;47.808;7.636;2022-11-15T21:21:04;11.90;99.90
21031;DHT22;61072;47.808;7.636;2022-11-15T21:23:31;12.00;99.90
21031;DHT22;61072;47.808;7.636;2022-11-15T21:25:58;12.00;99.90
21031;DHT22;61072;47.808;7.636;2022-11-15T21:28:24;12.00;99.90
21031;DHT22;61072;47.808;7.636;2022-11-15T21:30:56;12.00;99.90
21031;DHT22;61072;47.808;7.636;2022-11-15T21:33:23;12.00;99.90
21031;DHT22;61072;47.808;7.636;2022-11-15T21:35:54;12.10;99.90
21031;DHT22;61072;47.808;7.636;2022-11-15T21:38:22;12.10;99.90
21031;DHT22;61072;47.808;7.636;2022-11-15T21:40:50;12.10;99.90
21031;DHT22;61072;47.808;7.636;2022-11-15T21:43:18;12.10;99.90
21031;DHT22;61072;47.808;7.636;2022-11-15T21:45:55;12.10;99.90
21031;DHT22;61072;47.808;7.636;2022-11-15T21:48:22;12.10;99.90
21031;DHT22;61072;47.808;7.636;2022-11-15T21:50:56;12.10;99.90
21031;DHT22;61072;47.808;7.636;2022-11-15T21:53:24;12.10;99.90
21031;DHT22;61072;47.808;7.636;2022-11-15T21:55:51;12.10;99.90
21031;DHT22;61072;47.808;7.636;2022-11-15T21:58:19;12.10;99.90
21031;DHT22;61072;47.808;7.636;2022-11-15T22:00:46;12.10;99.90
21031;DHT22;61072;47.808;7.636;2022-11-15T22:03:31;12.00;99.90
21031;DHT22;61072;47.808;7.636;2022-11-15T22:05:58;11.90;99.90
21031;DHT22;61072;47.808;7.636;2022-11-15T22:08:25;11.90;99.90
21031;DHT22;61072;47.808;7.636;2022-11-15T22:10:53;11.90;99.90
21031;DHT22;61072;47.808;7.636;2022-11-15T22:13:19;11.90;99.90
21031;DHT22;61072;47.808;7.636;2022-11-15T22:15:46;11.90;99.90
21031;DHT22;61072;47.808;7.636;2022-11-15T22:18:13;11.80;99.90
21031;DHT22;61072;47.808;7.636;2022-11-15T22:20:40;11.60;99.90
21031;DHT22;61072;47.808;7.636;2022-11-15T22:23:10;11.60;99.90
21031;DHT22;61072;47.808;7.636;2022-11-15T22:25:37;11.50;99.90
21031;DHT22;61072;47.808;7.636;2022-11-15T22:28:04;11.60;99.90
21031;DHT22;61072;47.808;7.636;2022-11-15T22:30:31;11.50;99.90